Dades meteomassalio
Diari Summary for Nil La, TWC- Units:  Metric    English   Both
« Previous Day
Next Day »
Diari Semanal Mensual Anual Personalitzat
  Maxima: Minima: Mijana:
Temperatura: -17.8 °C -10.4 °C -9.6 °C
Rosada: -17.8 °C -14.8 °C -14.2 °C
Humitat: Humidity % 51 % 56 %
Velocitat del vent: 0 km/h 0 km/h 0 km/h
Racha vent: 0 km/h - -
Vent:- - North
Pressio: 0 hPa 34571.1 hPa -
Pluja: 0 mm    
Historical Graphs
 
 
Tabular Data for Nil La, TWC-
Time Temperature Dew Point Pressure Wind Wind Speed Wind Gust Humidity Rainfall Rate (Hourly) solar Conditions
-17.8 °C -17.8 °C 0 hPa Calm     Humidity % 0 mm SolarRadiationWatts/m^2 W/m2 Conditions
00:04 -9.1 °C -14.8 °C 34571.1 hPa Calm     51 % 0 mm 0.00 W/m2 CLR
00:09 -9.1 °C -14.8 °C 34571.1 hPa Calm     51 % 0 mm 0.00 W/m2 CLR
00:14 -8.8 °C -14.3 °C 34571.1 hPa Calm     52 % 0 mm 0.00 W/m2 CLR
00:19 -8.8 °C -14.3 °C 34571.1 hPa Calm     52 % 0 mm 0.00 W/m2 CLR
00:24 -8.8 °C -14.3 °C 34571.1 hPa Calm     52 % 0 mm 0.00 W/m2 CLR
00:29 -8.8 °C -14.3 °C 34574.4 hPa Calm     52 % 0 mm 0.00 W/m2 CLR
00:34 -9.1 °C -14.4 °C 34574.4 hPa Calm     53 % 0 mm 0.00 W/m2 CLR
00:39 -9.1 °C -14.4 °C 34574.4 hPa Calm     53 % 0 mm 0.00 W/m2 CLR
00:44 -9.1 °C -14.4 °C 34571.1 hPa Calm     53 % 0 mm 0.00 W/m2 CLR
00:49 -9.1 °C -14.4 °C 34571.1 hPa Calm     53 % 0 mm 0.00 W/m2 CLR
00:54 -8.8 °C -14.2 °C 34574.4 hPa Calm     53 % 0 mm 0.00 W/m2 CLR
00:59 -8.8 °C -14 °C 34574.4 hPa Calm     54 % 0 mm 0.00 W/m2 CLR
01:04 -8.8 °C -14 °C 34574.4 hPa Calm     54 % 0 mm 0.00 W/m2 CLR
01:09 -8.8 °C -14 °C 34574.4 hPa Calm     54 % 0 mm 0.00 W/m2 CLR
01:14 -8.8 °C -13.8 °C 34577.8 hPa Calm     55 % 0 mm 0.00 W/m2 CLR
01:19 -9.1 °C -14.1 °C 34577.8 hPa Calm     55 % 0 mm 0.00 W/m2 CLR
01:24 -9.1 °C -14.1 °C 34581.2 hPa Calm     55 % 0 mm 0.00 W/m2 CLR
01:29 -9.1 °C -14.1 °C 34577.8 hPa Calm     55 % 0 mm 0.00 W/m2 CLR
01:34 -9.1 °C -14.1 °C 34577.8 hPa Calm     55 % 0 mm 0.00 W/m2 CLR
01:39 -9.1 °C -14.1 °C 34581.2 hPa Calm     55 % 0 mm 0.00 W/m2 CLR
01:44 -9.1 °C -14.1 °C 34577.8 hPa Calm     55 % 0 mm 0.00 W/m2 CLR
01:49 -9.1 °C -14 °C 34581.2 hPa Calm     56 % 0 mm 0.00 W/m2 CLR
01:54 -8.8 °C -13.7 °C 34584.6 hPa Calm     56 % 0 mm 0.00 W/m2 CLR
01:59 -8.8 °C -13.8 °C 34584.6 hPa Calm     55 % 0 mm 0.00 W/m2 CLR
02:04 -8.8 °C -13.8 °C 34584.6 hPa Calm     55 % 0 mm 0.00 W/m2 CLR
02:09 -9.1 °C -14 °C 34584.6 hPa Calm     56 % 0 mm 0.00 W/m2 CLR
02:14 -9.1 °C -14 °C 34584.6 hPa Calm     56 % 0 mm 0.00 W/m2 CLR
02:19 -9.1 °C -14 °C 34588 hPa Calm     56 % 0 mm 0.00 W/m2 CLR
02:24 -9.1 °C -14 °C 34584.6 hPa Calm     56 % 0 mm 0.00 W/m2 CLR
02:29 -9.1 °C -14 °C 34588 hPa Calm     56 % 0 mm 0.00 W/m2 CLR
02:34 -9.1 °C -13.8 °C 34588 hPa Calm     57 % 0 mm 0.00 W/m2 CLR
02:39 -9.4 °C -14.1 °C 34588 hPa Calm     57 % 0 mm 0.00 W/m2 CLR
02:44 -9.4 °C -14 °C 34584.6 hPa Calm     58 % 0 mm 0.00 W/m2 CLR
02:49 -9.4 °C -14 °C 34584.6 hPa Calm     58 % 0 mm 0.00 W/m2 CLR
02:54 -9.4 °C -14 °C 34584.6 hPa Calm     58 % 0 mm 0.00 W/m2 CLR
02:59 -9.8 °C -14.3 °C 34584.6 hPa Calm     58 % 0 mm 0.00 W/m2 CLR
03:04 -9.8 °C -14.2 °C 34584.6 hPa Calm     59 % 0 mm 0.00 W/m2 CLR
03:09 -9.8 °C -14.2 °C 34584.6 hPa Calm     59 % 0 mm 0.00 W/m2 CLR
03:14 -9.8 °C -13.9 °C 34581.2 hPa Calm     61 % 0 mm 0.00 W/m2 CLR
03:19 -9.8 °C -14.3 °C 34581.2 hPa Calm     58 % 0 mm 0.00 W/m2 CLR
03:24 -10.1 °C -14.3 °C 34581.2 hPa Calm     60 % 0 mm 0.00 W/m2 CLR
03:29 -10.1 °C -14.6 °C 34584.6 hPa Calm     58 % 0 mm 0.00 W/m2 CLR
03:34 -10.1 °C -14.6 °C 34584.6 hPa Calm     58 % 0 mm 0.00 W/m2 CLR
03:39 -10.1 °C -14.4 °C 34588 hPa Calm     59 % 0 mm 0.00 W/m2 CLR
03:44 -10.1 °C -14.2 °C 34588 hPa Calm     61 % 0 mm 0.00 W/m2 CLR
03:49 -10.4 °C -14.5 °C 34588 hPa Calm     61 % 0 mm 0.00 W/m2 CLR
03:54 -10.4 °C -14.5 °C 34588 hPa Calm     61 % 0 mm 0.00 W/m2 CLR
03:59 -10.4 °C -14.3 °C 34591.4 hPa Calm     62 % 0 mm 0.00 W/m2 CLR
04:04 -10.4 °C -14.5 °C 34588 hPa Calm     61 % 0 mm 0.00 W/m2 CLR
04:09 -10.4 °C -14.3 °C 34584.6 hPa Calm     62 % 0 mm 0.00 W/m2 CLR
04:14 -10.4 °C -14.2 °C 34584.6 hPa Calm     63 % 0 mm 0.00 W/m2 CLR
04:19 -10.4 °C -14.2 °C 34584.6 hPa Calm     63 % 0 mm 0.00 W/m2 CLR
04:24 -10.4 °C -14.1 °C 34584.6 hPa Calm     64 % 0 mm 0.00 W/m2 CLR
04:29 -10.4 °C -14.2 °C 34584.6 hPa Calm     63 % 0 mm 0.00 W/m2 CLR
04:34 -10.4 °C -14.1 °C 34581.2 hPa Calm     64 % 0 mm 0.00 W/m2 CLR
04:39 -10.4 °C -13.9 °C 34577.8 hPa Calm     65 % 0 mm 0.00 W/m2 CLR
04:44 -10.4 °C -13.9 °C 34581.2 hPa Calm     65 % 0 mm 0.00 W/m2 CLR
Lo Temps de Massalio
Compliments of Weather Underground - 512 kb